sensor_id;sensor_type;location;lat;lon;timestamp;P1;durP1;ratioP1;P2;durP2;ratioP2
37001;SDS011;22913;51.910;8.374;2023-05-20T04:58:14;5.10;;;2.40;;
37001;SDS011;22913;51.910;8.374;2023-05-20T05:01:02;2.70;;;2.10;;
37001;SDS011;22913;51.910;8.374;2023-05-20T05:03:48;2.70;;;2.10;;
37001;SDS011;22913;51.910;8.374;2023-05-20T05:06:34;2.10;;;2.00;;
37001;SDS011;22913;51.910;8.374;2023-05-20T05:09:20;4.70;;;2.20;;
37001;SDS011;22913;51.910;8.374;2023-05-20T05:12:05;3.60;;;2.50;;
37001;SDS011;22913;51.910;8.374;2023-05-20T05:14:51;2.70;;;2.45;;
37001;SDS011;22913;51.910;8.374;2023-05-20T05:17:39;2.80;;;2.30;;
37001;SDS011;22913;51.910;8.374;2023-05-20T05:20:24;4.30;;;2.45;;
37001;SDS011;22913;51.910;8.374;2023-05-20T05:23:11;2.30;;;2.10;;
37001;SDS011;22913;51.910;8.374;2023-05-20T05:25:57;3.33;;;2.50;;
37001;SDS011;22913;51.910;8.374;2023-05-20T05:28:42;2.60;;;2.33;;
37001;SDS011;22913;51.910;8.374;2023-05-20T05:31:28;2.40;;;2.10;;
37001;SDS011;22913;51.910;8.374;2023-05-20T05:34:16;2.45;;;2.25;;
37001;SDS011;22913;51.910;8.374;2023-05-20T05:37:01;2.80;;;2.50;;
37001;SDS011;22913;51.910;8.374;2023-05-20T05:39:47;2.97;;;2.17;;
37001;SDS011;22913;51.910;8.374;2023-05-20T05:42:33;3.30;;;2.40;;
37001;SDS011;22913;51.910;8.374;2023-05-20T05:45:19;3.65;;;2.60;;
37001;SDS011;22913;51.910;8.374;2023-05-20T05:48:05;4.30;;;2.30;;
37001;SDS011;22913;51.910;8.374;2023-05-20T05:50:52;2.95;;;2.55;;
37001;SDS011;22913;51.910;8.374;2023-05-20T05:53:38;2.50;;;2.30;;
37001;SDS011;22913;51.910;8.374;2023-05-20T05:56:24;2.47;;;2.27;;
37001;SDS011;22913;51.910;8.374;2023-05-20T05:59:10;2.60;;;2.30;;
37001;SDS011;22913;51.910;8.374;2023-05-20T06:01:56;2.90;;;2.63;;
37001;SDS011;22913;51.910;8.374;2023-05-20T06:04:42;3.23;;;2.50;;
37001;SDS011;22913;51.910;8.374;2023-05-20T06:07:29;2.50;;;2.30;;
37001;SDS011;22913;51.910;8.374;2023-05-20T06:10:15;4.93;;;2.47;;
37001;SDS011;22913;51.910;8.374;2023-05-20T06:13:01;4.45;;;2.50;;
37001;SDS011;22913;51.910;8.374;2023-05-20T06:15:48;2.40;;;2.20;;
37001;SDS011;22913;51.910;8.374;2023-05-20T06:18:34;6.23;;;2.23;;
37001;SDS011;22913;51.910;8.374;2023-05-20T06:21:19;2.83;;;2.40;;
37001;SDS011;22913;51.910;8.374;2023-05-20T06:24:07;2.83;;;2.63;;
37001;SDS011;22913;51.910;8.374;2023-05-20T06:26:53;3.27;;;2.60;;
37001;SDS011;22913;51.910;8.374;2023-05-20T06:29:39;2.67;;;2.37;;
37001;SDS011;22913;51.910;8.374;2023-05-20T06:32:25;3.73;;;2.53;;
37001;SDS011;22913;51.910;8.374;2023-05-20T06:35:11;4.27;;;3.30;;
37001;SDS011;22913;51.910;8.374;2023-05-20T06:37:57;3.00;;;2.50;;
37001;SDS011;22913;51.910;8.374;2023-05-20T06:40:45;2.67;;;2.37;;
37001;SDS011;22913;51.910;8.374;2023-05-20T06:43:32;5.40;;;2.30;;
37001;SDS011;22913;51.910;8.374;2023-05-20T06:46:18;2.70;;;2.50;;
37001;SDS011;22913;51.910;8.374;2023-05-20T06:49:04;2.73;;;2.50;;
37001;SDS011;22913;51.910;8.374;2023-05-20T06:51:50;4.13;;;3.10;;
37001;SDS011;22913;51.910;8.374;2023-05-20T06:54:36;3.13;;;2.47;;
37001;SDS011;22913;51.910;8.374;2023-05-20T06:57:25;2.77;;;2.50;;
37001;SDS011;22913;51.910;8.374;2023-05-20T07:00:11;4.03;;;2.87;;
37001;SDS011;22913;51.910;8.374;2023-05-20T07:02:57;2.60;;;2.40;;
37001;SDS011;22913;51.910;8.374;2023-05-20T07:05:43;2.60;;;2.40;;
37001;SDS011;22913;51.910;8.374;2023-05-20T07:08:29;3.20;;;2.90;;
37001;SDS011;22913;51.910;8.374;2023-05-20T07:11:15;3.50;;;3.10;;
37001;SDS011;22913;51.910;8.374;2023-05-20T07:14:02;11.10;;;3.10;;
37001;SDS011;22913;51.910;8.374;2023-05-20T07:16:48;4.93;;;2.67;;
37001;SDS011;22913;51.910;8.374;2023-05-20T07:19:34;2.77;;;2.57;;
37001;SDS011;22913;51.910;8.374;2023-05-20T07:22:20;3.50;;;2.90;;
37001;SDS011;22913;51.910;8.374;2023-05-20T07:25:06;6.07;;;3.50;;
37001;SDS011;22913;51.910;8.374;2023-05-20T07:27:52;5.77;;;5.27;;
37001;SDS011;22913;51.910;8.374;2023-05-20T07:30:39;5.80;;;5.20;;
37001;SDS011;22913;51.910;8.374;2023-05-20T07:33:24;4.03;;;3.73;;
37001;SDS011;22913;51.910;8.374;2023-05-20T07:36:10;5.00;;;4.50;;
37001;SDS011;22913;51.910;8.374;2023-05-20T07:38:55;4.00;;;3.60;;
37001;SDS011;22913;51.910;8.374;2023-05-20T07:41:41;4.83;;;3.73;;
37001;SDS011;22913;51.910;8.374;2023-05-20T07:44:28;6.50;;;4.27;;
37001;SDS011;22913;51.910;8.374;2023-05-20T07:47:15;5.83;;;4.10;;
37001;SDS011;22913;51.910;8.374;2023-05-20T07:50:01;6.10;;;5.10;;
37001;SDS011;22913;51.910;8.374;2023-05-20T07:52:47;5.63;;;5.07;;
37001;SDS011;22913;51.910;8.374;2023-05-20T07:55:32;6.67;;;4.60;;
37001;SDS011;22913;51.910;8.374;2023-05-20T07:58:18;7.93;;;5.17;;
37001;SDS011;22913;51.910;8.374;2023-05-20T08:01:04;6.07;;;5.57;;
37001;SDS011;22913;51.910;8.374;2023-05-20T08:03:51;7.37;;;6.67;;
37001;SDS011;22913;51.910;8.374;2023-05-20T08:06:37;5.40;;;4.95;;
37001;SDS011;22913;51.910;8.374;2023-05-20T08:09:23;5.40;;;5.00;;
37001;SDS011;22913;51.910;8.374;2023-05-20T08:12:09;5.40;;;4.53;;
37001;SDS011;22913;51.910;8.374;2023-05-20T08:14:55;5.77;;;5.00;;
37001;SDS011;22913;51.910;8.374;2023-05-20T08:17:40;4.47;;;4.10;;
37001;SDS011;22913;51.910;8.374;2023-05-20T08:20:28;6.90;;;4.73;;
37001;SDS011;22913;51.910;8.374;2023-05-20T08:23:14;4.60;;;4.20;;
37001;SDS011;22913;51.910;8.374;2023-05-20T08:25:59;6.47;;;5.20;;
37001;SDS011;22913;51.910;8.374;2023-05-20T08:28:46;4.53;;;4.13;;
37001;SDS011;22913;51.910;8.374;2023-05-20T08:31:32;4.17;;;3.83;;
37001;SDS011;22913;51.910;8.374;2023-05-20T08:34:17;3.37;;;3.07;;
37001;SDS011;22913;51.910;8.374;2023-05-20T08:37:05;4.80;;;3.57;;
37001;SDS011;22913;51.910;8.374;2023-05-20T08:39:50;3.90;;;3.43;;
37001;SDS011;22913;51.910;8.374;2023-05-20T08:42:39;4.43;;;3.20;;
37001;SDS011;22913;51.910;8.374;2023-05-20T08:45:26;4.10;;;3.10;;
37001;SDS011;22913;51.910;8.374;2023-05-20T08:48:14;3.97;;;3.30;;
37001;SDS011;22913;51.910;8.374;2023-05-20T08:51:01;2.80;;;2.60;;
37001;SDS011;22913;51.910;8.374;2023-05-20T08:53:49;3.70;;;3.33;;
37001;SDS011;22913;51.910;8.374;2023-05-20T08:56:35;3.30;;;3.10;;
37001;SDS011;22913;51.910;8.374;2023-05-20T08:59:21;3.57;;;3.27;;
37001;SDS011;22913;51.910;8.374;2023-05-20T09:02:07;6.03;;;5.23;;
37001;SDS011;22913;51.910;8.374;2023-05-20T09:04:53;3.97;;;3.67;;
37001;SDS011;22913;51.910;8.374;2023-05-20T09:07:38;6.05;;;3.50;;
37001;SDS011;22913;51.910;8.374;2023-05-20T09:10:26;3.65;;;3.30;;
37001;SDS011;22913;51.910;8.374;2023-05-20T09:13:12;5.63;;;3.03;;
37001;SDS011;22913;51.910;8.374;2023-05-20T09:15:58;3.53;;;3.00;;
37001;SDS011;22913;51.910;8.374;2023-05-20T09:18:45;8.20;;;3.17;;
37001;SDS011;22913;51.910;8.374;2023-05-20T09:21:30;4.53;;;4.23;;
37001;SDS011;22913;51.910;8.374;2023-05-20T09:24:18;3.95;;;2.90;;
37001;SDS011;22913;51.910;8.374;2023-05-20T09:27:07;5.70;;;5.30;;
37001;SDS011;22913;51.910;8.374;2023-05-20T09:29:53;3.90;;;3.60;;
37001;SDS011;22913;51.910;8.374;2023-05-20T09:32:39;3.15;;;2.95;;
37001;SDS011;22913;51.910;8.374;2023-05-20T09:35:25;3.20;;;2.90;;
37001;SDS011;22913;51.910;8.374;2023-05-20T09:38:11;3.50;;;2.77;;
37001;SDS011;22913;51.910;8.374;2023-05-20T09:40:59;3.20;;;2.90;;
37001;SDS011;22913;51.910;8.374;2023-05-20T09:43:47;4.73;;;4.23;;
37001;SDS011;22913;51.910;8.374;2023-05-20T09:46:35;6.77;;;5.93;;
37001;SDS011;22913;51.910;8.374;2023-05-20T09:49:20;3.77;;;3.47;;
37001;SDS011;22913;51.910;8.374;2023-05-20T09:52:07;4.25;;;3.20;;
37001;SDS011;22913;51.910;8.374;2023-05-20T09:54:53;2.70;;;2.50;;
37001;SDS011;22913;51.910;8.374;2023-05-20T09:57:40;2.50;;;2.30;;
37001;SDS011;22913;51.910;8.374;2023-05-20T10:00:27;2.60;;;2.40;;
37001;SDS011;22913;51.910;8.374;2023-05-20T10:03:14;2.10;;;2.00;;
37001;SDS011;22913;51.910;8.374;2023-05-20T10:09:20;3.50;;;3.20;;
37001;SDS011;22913;51.910;8.374;2023-05-20T10:12:18;2.40;;;2.20;;
37001;SDS011;22913;51.910;8.374;2023-05-20T10:15:21;2.00;;;1.90;;
37001;SDS011;22913;51.910;8.374;2023-05-20T10:18:15;3.10;;;2.90;;
37001;SDS011;22913;51.910;8.374;2023-05-20T10:21:16;2.80;;;2.60;;
37001;SDS011;22913;51.910;8.374;2023-05-20T10:24:05;2.60;;;2.40;;
37001;SDS011;22913;51.910;8.374;2023-05-20T10:26:53;2.07;;;1.97;;
37001;SDS011;22913;51.910;8.374;2023-05-20T10:29:43;2.70;;;2.50;;
37001;SDS011;22913;51.910;8.374;2023-05-20T10:32:30;2.80;;;2.40;;
37001;SDS011;22913;51.910;8.374;2023-05-20T10:35:23;2.50;;;2.30;;
37001;SDS011;22913;51.910;8.374;2023-05-20T10:38:10;2.65;;;2.45;;
37001;SDS011;22913;51.910;8.374;2023-05-20T10:41:06;2.70;;;2.50;;
37001;SDS011;22913;51.910;8.374;2023-05-20T10:44:00;2.90;;;2.20;;
37001;SDS011;22913;51.910;8.374;2023-05-20T10:46:47;2.60;;;2.40;;
37001;SDS011;22913;51.910;8.374;2023-05-20T10:49:46;2.70;;;2.50;;
37001;SDS011;22913;51.910;8.374;2023-05-20T10:52:34;2.80;;;2.60;;
37001;SDS011;22913;51.910;8.374;2023-05-20T10:55:20;3.10;;;2.80;;
37001;SDS011;22913;51.910;8.374;2023-05-20T10:58:06;2.90;;;2.70;;
37001;SDS011;22913;51.910;8.374;2023-05-20T11:00:54;2.83;;;2.53;;
37001;SDS011;22913;51.910;8.374;2023-05-20T11:03:40;2.87;;;2.70;;
37001;SDS011;22913;51.910;8.374;2023-05-20T11:06:27;3.53;;;2.70;;
37001;SDS011;22913;51.910;8.374;2023-05-20T11:09:14;2.80;;;2.50;;
37001;SDS011;22913;51.910;8.374;2023-05-20T11:12:00;3.33;;;3.10;;
37001;SDS011;22913;51.910;8.374;2023-05-20T11:14:46;2.60;;;2.40;;
37001;SDS011;22913;51.910;8.374;2023-05-20T11:17:32;2.40;;;2.20;;
37001;SDS011;22913;51.910;8.374;2023-05-20T11:20:18;3.03;;;2.60;;
37001;SDS011;22913;51.910;8.374;2023-05-20T11:23:04;3.33;;;3.03;;
37001;SDS011;22913;51.910;8.374;2023-05-20T11:25:52;3.23;;;2.93;;
37001;SDS011;22913;51.910;8.374;2023-05-20T11:28:38;4.30;;;3.17;;
37001;SDS011;22913;51.910;8.374;2023-05-20T11:31:24;3.30;;;3.10;;
37001;SDS011;22913;51.910;8.374;2023-05-20T11:34:10;3.40;;;3.03;;
37001;SDS011;22913;51.910;8.374;2023-05-20T11:36:56;3.27;;;3.00;;
37001;SDS011;22913;51.910;8.374;2023-05-20T11:39:41;3.70;;;3.40;;
37001;SDS011;22913;51.910;8.374;2023-05-20T11:42:28;4.73;;;4.33;;
37001;SDS011;22913;51.910;8.374;2023-05-20T11:45:15;4.37;;;4.03;;
37001;SDS011;22913;51.910;8.374;2023-05-20T11:48:01;3.80;;;3.50;;
37001;SDS011;22913;51.910;8.374;2023-05-20T11:50:47;4.50;;;4.20;;
37001;SDS011;22913;51.910;8.374;2023-05-20T11:53:33;3.93;;;3.50;;
37001;SDS011;22913;51.910;8.374;2023-05-20T11:56:19;3.47;;;3.17;;
37001;SDS011;22913;51.910;8.374;2023-05-20T11:59:07;5.03;;;3.53;;
37001;SDS011;22913;51.910;8.374;2023-05-20T12:01:53;5.03;;;4.60;;
37001;SDS011;22913;51.910;8.374;2023-05-20T12:04:39;3.87;;;3.57;;
37001;SDS011;22913;51.910;8.374;2023-05-20T12:07:25;3.07;;;2.83;;
37001;SDS011;22913;51.910;8.374;2023-05-20T12:10:11;5.13;;;3.03;;
37001;SDS011;22913;51.910;8.374;2023-05-20T12:12:57;3.27;;;2.97;;
37001;SDS011;22913;51.910;8.374;2023-05-20T12:15:45;3.27;;;3.03;;
37001;SDS011;22913;51.910;8.374;2023-05-20T12:21:16;3.05;;;2.85;;
37001;SDS011;22913;51.910;8.374;2023-05-20T13:22:02;2.00;;;1.90;;
37001;SDS011;22913;51.910;8.374;2023-05-20T13:27:33;2.90;;;2.40;;
37001;SDS011;22913;51.910;8.374;2023-05-20T13:33:04;2.10;;;2.00;;
37001;SDS011;22913;51.910;8.374;2023-05-20T14:47:36;3.35;;;3.05;;
37001;SDS011;22913;51.910;8.374;2023-05-20T14:50:23;3.00;;;2.80;;
37001;SDS011;22913;51.910;8.374;2023-05-20T14:53:09;3.45;;;3.25;;
37001;SDS011;22913;51.910;8.374;2023-05-20T14:55:55;3.77;;;3.50;;
37001;SDS011;22913;51.910;8.374;2023-05-20T14:58:40;2.75;;;2.55;;
37001;SDS011;22913;51.910;8.374;2023-05-20T15:01:28;2.93;;;2.70;;
37001;SDS011;22913;51.910;8.374;2023-05-20T15:04:14;2.63;;;2.43;;
37001;SDS011;22913;51.910;8.374;2023-05-20T15:06:59;3.03;;;2.70;;
37001;SDS011;22913;51.910;8.374;2023-05-20T15:09:45;5.80;;;3.17;;
37001;SDS011;22913;51.910;8.374;2023-05-20T15:12:32;7.03;;;3.70;;
37001;SDS011;22913;51.910;8.374;2023-05-20T15:15:19;4.67;;;4.27;;
37001;SDS011;22913;51.910;8.374;2023-05-20T15:18:06;5.37;;;4.87;;
37001;SDS011;22913;51.910;8.374;2023-05-20T15:20:51;5.83;;;5.10;;
37001;SDS011;22913;51.910;8.374;2023-05-20T15:23:37;4.47;;;3.60;;
37001;SDS011;22913;51.910;8.374;2023-05-20T15:26:23;4.60;;;4.30;;
37001;SDS011;22913;51.910;8.374;2023-05-20T15:29:08;4.53;;;4.20;;
37001;SDS011;22913;51.910;8.374;2023-05-20T15:31:54;5.05;;;4.65;;
37001;SDS011;22913;51.910;8.374;2023-05-20T15:34:40;5.17;;;4.77;;
37001;SDS011;22913;51.910;8.374;2023-05-20T15:37:26;5.13;;;4.73;;
37001;SDS011;22913;51.910;8.374;2023-05-20T15:40:12;5.57;;;5.07;;
37001;SDS011;22913;51.910;8.374;2023-05-20T15:42:57;5.10;;;4.60;;
37001;SDS011;22913;51.910;8.374;2023-05-20T15:45:43;5.07;;;4.57;;
37001;SDS011;22913;51.910;8.374;2023-05-20T15:48:30;5.10;;;4.70;;
37001;SDS011;22913;51.910;8.374;2023-05-20T15:51:18;5.20;;;4.60;;
37001;SDS011;22913;51.910;8.374;2023-05-20T15:54:04;5.07;;;4.57;;
37001;SDS011;22913;51.910;8.374;2023-05-20T15:56:50;5.25;;;4.75;;
37001;SDS011;22913;51.910;8.374;2023-05-20T15:59:35;5.45;;;4.90;;
37001;SDS011;22913;51.910;8.374;2023-05-20T16:02:21;5.40;;;4.90;;
37001;SDS011;22913;51.910;8.374;2023-05-20T16:07:53;5.40;;;4.10;;
37001;SDS011;22913;51.910;8.374;2023-05-20T16:10:39;8.67;;;5.67;;
37001;SDS011;22913;51.910;8.374;2023-05-20T16:13:25;5.47;;;4.97;;
37001;SDS011;22913;51.910;8.374;2023-05-20T16:16:10;4.20;;;3.90;;
37001;SDS011;22913;51.910;8.374;2023-05-20T16:18:57;4.67;;;4.10;;
37001;SDS011;22913;51.910;8.374;2023-05-20T16:21:42;5.13;;;4.63;;
37001;SDS011;22913;51.910;8.374;2023-05-20T16:24:29;4.60;;;4.20;;
37001;SDS011;22913;51.910;8.374;2023-05-20T16:27:15;5.00;;;4.50;;
37001;SDS011;22913;51.910;8.374;2023-05-20T16:30:01;4.80;;;4.40;;
37001;SDS011;22913;51.910;8.374;2023-05-20T16:32:46;6.30;;;4.50;;
37001;SDS011;22913;51.910;8.374;2023-05-20T16:35:32;4.80;;;4.40;;
37001;SDS011;22913;51.910;8.374;2023-05-20T16:38:18;5.90;;;4.57;;
37001;SDS011;22913;51.910;8.374;2023-05-20T16:41:05;5.37;;;4.87;;
37001;SDS011;22913;51.910;8.374;2023-05-20T16:43:50;6.40;;;5.80;;
37001;SDS011;22913;51.910;8.374;2023-05-20T16:46:36;5.63;;;5.23;;
37001;SDS011;22913;51.910;8.374;2023-05-20T16:49:22;5.37;;;4.87;;
37001;SDS011;22913;51.910;8.374;2023-05-20T16:52:07;5.97;;;5.43;;
37001;SDS011;22913;51.910;8.374;2023-05-20T16:54:53;5.73;;;5.13;;
37001;SDS011;22913;51.910;8.374;2023-05-20T16:57:42;4.97;;;4.57;;
37001;SDS011;22913;51.910;8.374;2023-05-20T17:00:29;5.10;;;4.70;;
37001;SDS011;22913;51.910;8.374;2023-05-20T17:03:14;5.70;;;5.20;;
37001;SDS011;22913;51.910;8.374;2023-05-20T17:06:00;5.77;;;5.27;;
37001;SDS011;22913;51.910;8.374;2023-05-20T17:08:46;5.70;;;5.20;;
37001;SDS011;22913;51.910;8.374;2023-05-20T17:11:32;5.87;;;5.37;;
37001;SDS011;22913;51.910;8.374;2023-05-20T17:14:19;6.40;;;5.70;;
37001;SDS011;22913;51.910;8.374;2023-05-20T17:17:04;6.13;;;5.63;;
37001;SDS011;22913;51.910;8.374;2023-05-20T17:19:52;7.10;;;6.40;;
37001;SDS011;22913;51.910;8.374;2023-05-20T17:22:37;8.60;;;6.50;;
37001;SDS011;22913;51.910;8.374;2023-05-20T17:25:23;6.57;;;5.97;;
37001;SDS011;22913;51.910;8.374;2023-05-20T17:28:08;7.83;;;7.07;;
37001;SDS011;22913;51.910;8.374;2023-05-20T17:30:55;10.27;;;6.80;;
37001;SDS011;22913;51.910;8.374;2023-05-20T17:33:41;7.03;;;6.03;;
37001;SDS011;22913;51.910;8.374;2023-05-20T17:36:26;5.77;;;5.27;;
37001;SDS011;22913;51.910;8.374;2023-05-20T17:39:12;5.40;;;4.90;;
37001;SDS011;22913;51.910;8.374;2023-05-20T17:41:59;8.10;;;7.30;;
37001;SDS011;22913;51.910;8.374;2023-05-20T17:44:45;7.03;;;5.50;;
37001;SDS011;22913;51.910;8.374;2023-05-20T17:47:32;5.70;;;5.17;;
37001;SDS011;22913;51.910;8.374;2023-05-20T17:50:18;7.07;;;5.13;;
37001;SDS011;22913;51.910;8.374;2023-05-20T17:53:03;5.87;;;5.33;;
37001;SDS011;22913;51.910;8.374;2023-05-20T17:55:49;6.33;;;5.73;;
37001;SDS011;22913;51.910;8.374;2023-05-20T17:58:35;6.97;;;5.90;;
37001;SDS011;22913;51.910;8.374;2023-05-20T18:01:20;6.03;;;5.53;;
37001;SDS011;22913;51.910;8.374;2023-05-20T18:04:07;5.63;;;5.10;;
37001;SDS011;22913;51.910;8.374;2023-05-20T18:06:53;8.67;;;7.83;;
37001;SDS011;22913;51.910;8.374;2023-05-20T18:09:39;7.60;;;6.97;;
37001;SDS011;22913;51.910;8.374;2023-05-20T18:12:24;7.27;;;6.40;;
37001;SDS011;22913;51.910;8.374;2023-05-20T18:15:10;6.67;;;6.07;;
37001;SDS011;22913;51.910;8.374;2023-05-20T18:17:57;7.03;;;6.33;;
37001;SDS011;22913;51.910;8.374;2023-05-20T18:20:44;6.97;;;6.30;;
37001;SDS011;22913;51.910;8.374;2023-05-20T18:23:29;6.17;;;5.57;;
37001;SDS011;22913;51.910;8.374;2023-05-20T18:26:15;7.00;;;6.40;;
37001;SDS011;22913;51.910;8.374;2023-05-20T18:29:01;6.60;;;6.00;;
37001;SDS011;22913;51.910;8.374;2023-05-20T18:31:46;7.17;;;6.53;;
37001;SDS011;22913;51.910;8.374;2023-05-20T18:34:32;7.20;;;6.60;;
37001;SDS011;22913;51.910;8.374;2023-05-20T18:37:19;7.83;;;6.90;;
37001;SDS011;22913;51.910;8.374;2023-05-20T18:40:05;6.90;;;6.30;;
37001;SDS011;22913;51.910;8.374;2023-05-20T18:42:51;7.33;;;6.17;;
37001;SDS011;22913;51.910;8.374;2023-05-20T18:45:37;6.00;;;5.50;;
37001;SDS011;22913;51.910;8.374;2023-05-20T18:48:22;7.20;;;6.07;;
37001;SDS011;22913;51.910;8.374;2023-05-20T18:51:08;6.60;;;6.00;;
37001;SDS011;22913;51.910;8.374;2023-05-20T18:53:55;6.43;;;5.90;;
37001;SDS011;22913;51.910;8.374;2023-05-20T18:56:41;6.60;;;6.00;;
37001;SDS011;22913;51.910;8.374;2023-05-20T18:59:26;8.87;;;6.30;;
37001;SDS011;22913;51.910;8.374;2023-05-20T19:02:12;6.73;;;5.67;;
37001;SDS011;22913;51.910;8.374;2023-05-20T19:04:58;6.07;;;5.47;;
37001;SDS011;22913;51.910;8.374;2023-05-20T19:07:43;6.50;;;5.90;;
37001;SDS011;22913;51.910;8.374;2023-05-20T19:10:30;6.10;;;5.50;;
37001;SDS011;22913;51.910;8.374;2023-05-20T19:13:16;6.17;;;5.57;;
37001;SDS011;22913;51.910;8.374;2023-05-20T19:16:01;6.13;;;5.57;;
37001;SDS011;22913;51.910;8.374;2023-05-20T19:18:47;6.10;;;5.60;;
37001;SDS011;22913;51.910;8.374;2023-05-20T19:21:32;6.03;;;5.43;;
37001;SDS011;22913;51.910;8.374;2023-05-20T19:24:18;10.73;;;5.40;;
37001;SDS011;22913;51.910;8.374;2023-05-20T19:27:05;6.63;;;5.27;;
37001;SDS011;22913;51.910;8.374;2023-05-20T19:29:51;5.40;;;5.00;;
37001;SDS011;22913;51.910;8.374;2023-05-20T19:32:37;5.53;;;5.10;;
37001;SDS011;22913;51.910;8.374;2023-05-20T19:35:22;5.40;;;4.90;;
37001;SDS011;22913;51.910;8.374;2023-05-20T19:38:08;5.60;;;5.13;;
37001;SDS011;22913;51.910;8.374;2023-05-20T19:40:54;6.37;;;4.80;;
37001;SDS011;22913;51.910;8.374;2023-05-20T19:43:41;5.37;;;4.97;;
37001;SDS011;22913;51.910;8.374;2023-05-20T19:46:26;4.70;;;4.40;;
37001;SDS011;22913;51.910;8.374;2023-05-20T19:49:11;4.97;;;4.57;;
37001;SDS011;22913;51.910;8.374;2023-05-20T19:51:57;5.57;;;5.07;;
37001;SDS011;22913;51.910;8.374;2023-05-20T19:54:43;4.77;;;4.30;;
37001;SDS011;22913;51.910;8.374;2023-05-20T19:57:28;4.60;;;4.20;;
37001;SDS011;22913;51.910;8.374;2023-05-20T20:00:16;4.77;;;4.27;;
37001;SDS011;22913;51.910;8.374;2023-05-20T20:03:02;5.67;;;4.97;;
37001;SDS011;22913;51.910;8.374;2023-05-20T20:05:49;4.87;;;4.43;;
37001;SDS011;22913;51.910;8.374;2023-05-20T20:08:35;4.80;;;4.20;;
37001;SDS011;22913;51.910;8.374;2023-05-20T20:11:22;4.50;;;4.10;;
37001;SDS011;22913;51.910;8.374;2023-05-20T20:14:07;6.53;;;4.73;;
37001;SDS011;22913;51.910;8.374;2023-05-20T20:16:55;5.13;;;4.40;;
37001;SDS011;22913;51.910;8.374;2023-05-20T20:19:41;5.43;;;4.63;;
37001;SDS011;22913;51.910;8.374;2023-05-20T20:22:28;6.13;;;5.13;;
37001;SDS011;22913;51.910;8.374;2023-05-20T20:25:14;7.03;;;4.67;;
37001;SDS011;22913;51.910;8.374;2023-05-20T20:28:00;5.20;;;4.70;;
37001;SDS011;22913;51.910;8.374;2023-05-20T20:30:45;4.97;;;4.43;;
37001;SDS011;22913;51.910;8.374;2023-05-20T20:33:32;4.80;;;4.37;;
37001;SDS011;22913;51.910;8.374;2023-05-20T20:36:18;4.87;;;4.03;;
37001;SDS011;22913;51.910;8.374;2023-05-20T20:39:04;4.50;;;4.10;;
37001;SDS011;22913;51.910;8.374;2023-05-20T20:41:50;5.87;;;4.13;;
37001;SDS011;22913;51.910;8.374;2023-05-20T20:44:35;4.70;;;4.30;;
37001;SDS011;22913;51.910;8.374;2023-05-20T20:47:21;4.73;;;4.33;;
37001;SDS011;22913;51.910;8.374;2023-05-20T20:50:08;5.10;;;4.70;;
37001;SDS011;22913;51.910;8.374;2023-05-20T20:52:55;4.73;;;4.33;;
37001;SDS011;22913;51.910;8.374;2023-05-20T20:55:41;5.57;;;4.37;;
37001;SDS011;22913;51.910;8.374;2023-05-20T20:58:28;7.50;;;4.20;;
37001;SDS011;22913;51.910;8.374;2023-05-20T21:01:17;5.67;;;4.30;;
37001;SDS011;22913;51.910;8.374;2023-05-20T21:04:03;4.83;;;4.03;;
37001;SDS011;22913;51.910;8.374;2023-05-20T21:06:50;6.27;;;4.47;;
37001;SDS011;22913;51.910;8.374;2023-05-20T21:09:35;4.37;;;3.97;;
37001;SDS011;22913;51.910;8.374;2023-05-20T21:12:21;4.50;;;4.10;;
37001;SDS011;22913;51.910;8.374;2023-05-20T21:15:07;4.67;;;4.23;;
37001;SDS011;22913;51.910;8.374;2023-05-20T21:17:55;4.30;;;3.87;;
37001;SDS011;22913;51.910;8.374;2023-05-20T21:20:40;4.60;;;4.20;;
37001;SDS011;22913;51.910;8.374;2023-05-20T21:23:27;4.43;;;4.00;;
37001;SDS011;22913;51.910;8.374;2023-05-20T21:26:13;4.47;;;4.07;;
37001;SDS011;22913;51.910;8.374;2023-05-20T21:28:58;3.90;;;3.50;;
37001;SDS011;22913;51.910;8.374;2023-05-20T21:31:44;4.43;;;4.07;;
37001;SDS011;22913;51.910;8.374;2023-05-20T21:34:30;4.30;;;3.83;;
37001;SDS011;22913;51.910;8.374;2023-05-20T21:37:16;4.17;;;3.87;;
37001;SDS011;22913;51.910;8.374;2023-05-20T21:40:03;4.53;;;4.07;;
37001;SDS011;22913;51.910;8.374;2023-05-20T21:42:49;4.43;;;3.93;;
37001;SDS011;22913;51.910;8.374;2023-05-20T21:45:35;4.10;;;3.80;;
37001;SDS011;22913;51.910;8.374;2023-05-20T21:48:21;6.63;;;4.07;;
37001;SDS011;22913;51.910;8.374;2023-05-20T21:51:06;4.70;;;3.90;;
37001;SDS011;22913;51.910;8.374;2023-05-20T21:53:52;4.20;;;3.80;;
37001;SDS011;22913;51.910;8.374;2023-05-20T21:56:39;4.90;;;3.83;;
37001;SDS011;22913;51.910;8.374;2023-05-20T21:59:25;7.03;;;3.50;;
37001;SDS011;22913;51.910;8.374;2023-05-20T22:02:10;4.17;;;3.30;;
37001;SDS011;22913;51.910;8.374;2023-05-20T22:04:56;4.00;;;3.60;;
37001;SDS011;22913;51.910;8.374;2023-05-20T22:07:43;4.10;;;3.80;;
37001;SDS011;22913;51.910;8.374;2023-05-20T22:10:28;4.30;;;3.90;;
37001;SDS011;22913;51.910;8.374;2023-05-20T22:13:17;3.73;;;3.27;;
37001;SDS011;22913;51.910;8.374;2023-05-20T22:16:03;3.67;;;3.37;;
37001;SDS011;22913;51.910;8.374;2023-05-20T22:18:49;4.00;;;3.60;;
37001;SDS011;22913;51.910;8.374;2023-05-20T22:21:36;3.40;;;3.10;;
37001;SDS011;22913;51.910;8.374;2023-05-20T22:24:21;9.00;;;3.80;;
37001;SDS011;22913;51.910;8.374;2023-05-20T22:27:07;4.10;;;3.70;;
37001;SDS011;22913;51.910;8.374;2023-05-20T22:29:54;3.80;;;3.50;;
37001;SDS011;22913;51.910;8.374;2023-05-20T22:32:40;4.13;;;3.73;;
37001;SDS011;22913;51.910;8.374;2023-05-20T22:35:26;3.63;;;3.33;;
37001;SDS011;22913;51.910;8.374;2023-05-20T22:38:11;5.10;;;3.90;;
37001;SDS011;22913;51.910;8.374;2023-05-20T22:40:57;4.10;;;3.80;;
37001;SDS011;22913;51.910;8.374;2023-05-20T22:43:43;5.03;;;4.30;;
37001;SDS011;22913;51.910;8.374;2023-05-20T22:46:31;4.40;;;4.00;;
37001;SDS011;22913;51.910;8.374;2023-05-20T22:49:16;4.10;;;3.70;;
37001;SDS011;22913;51.910;8.374;2023-05-20T22:52:02;4.70;;;3.97;;
37001;SDS011;22913;51.910;8.374;2023-05-20T22:54:50;4.57;;;4.17;;
37001;SDS011;22913;51.910;8.374;2023-05-20T22:57:37;3.70;;;3.40;;
37001;SDS011;22913;51.910;8.374;2023-05-20T23:00:22;4.50;;;4.10;;
37001;SDS011;22913;51.910;8.374;2023-05-20T23:03:10;4.20;;;3.80;;
37001;SDS011;22913;51.910;8.374;2023-05-20T23:05:55;3.97;;;3.67;;
37001;SDS011;22913;51.910;8.374;2023-05-20T23:08:43;4.87;;;3.97;;
37001;SDS011;22913;51.910;8.374;2023-05-20T23:11:30;4.07;;;3.77;;
37001;SDS011;22913;51.910;8.374;2023-05-20T23:14:16;4.23;;;3.83;;
37001;SDS011;22913;51.910;8.374;2023-05-20T23:17:04;4.20;;;3.90;;
37001;SDS011;22913;51.910;8.374;2023-05-20T23:19:52;4.33;;;4.03;;
37001;SDS011;22913;51.910;8.374;2023-05-20T23:22:37;3.90;;;3.60;;
37001;SDS011;22913;51.910;8.374;2023-05-20T23:25:23;4.00;;;3.70;;
37001;SDS011;22913;51.910;8.374;2023-05-20T23:28:09;4.47;;;4.00;;
37001;SDS011;22913;51.910;8.374;2023-05-20T23:30:55;4.93;;;4.10;;
37001;SDS011;22913;51.910;8.374;2023-05-20T23:33:41;4.33;;;3.93;;
37001;SDS011;22913;51.910;8.374;2023-05-20T23:36:28;3.97;;;3.60;;
37001;SDS011;22913;51.910;8.374;2023-05-20T23:39:17;4.57;;;4.00;;
37001;SDS011;22913;51.910;8.374;2023-05-20T23:42:03;4.60;;;3.70;;
37001;SDS011;22913;51.910;8.374;2023-05-20T23:44:50;5.03;;;4.60;;
37001;SDS011;22913;51.910;8.374;2023-05-20T23:47:35;4.50;;;3.93;;
37001;SDS011;22913;51.910;8.374;2023-05-20T23:50:21;4.47;;;3.63;;
37001;SDS011;22913;51.910;8.374;2023-05-20T23:53:12;4.40;;;4.00;;
37001;SDS011;22913;51.910;8.374;2023-05-20T23:55:58;4.97;;;4.47;;
37001;SDS011;22913;51.910;8.374;2023-05-20T23:58:44;4.73;;;4.30;;
